createdAt,value
2023-03-05T00:00:34.187Z,56.74
2023-03-05T00:03:05.748Z,55.89
2023-03-05T00:05:37.373Z,57.40
2023-03-05T00:08:09.007Z,58.57
2023-03-05T00:10:40.618Z,57.59
2023-03-05T00:13:12.197Z,58.21
2023-03-05T00:15:43.795Z,58.78
2023-03-05T00:18:15.437Z,58.98
2023-03-05T00:20:47.756Z,59.84
2023-03-05T00:23:19.364Z,59.37
2023-03-05T00:25:51.053Z,58.99
2023-03-05T00:28:23.020Z,57.57
2023-03-05T00:30:54.602Z,58.42
2023-03-05T00:33:26.307Z,57.41
2023-03-05T00:35:57.970Z,57.49
2023-03-05T00:38:29.543Z,57.00
2023-03-05T00:41:01.373Z,57.51
2023-03-05T00:43:32.958Z,57.99
2023-03-05T00:46:05.374Z,57.50
2023-03-05T00:48:37.019Z,57.49
2023-03-05T00:51:08.738Z,57.59
2023-03-05T00:53:40.295Z,57.24
2023-03-05T00:56:12.099Z,57.87
2023-03-05T00:58:43.742Z,58.61
2023-03-05T01:01:16.437Z,60.37
2023-03-05T01:03:48.167Z,60.04
2023-03-05T01:06:20.589Z,61.09
2023-03-05T01:08:52.234Z,61.59
2023-03-05T01:11:23.898Z,59.66
2023-03-05T01:13:55.640Z,60.10
2023-03-05T01:16:27.305Z,60.07
2023-03-05T01:18:59.101Z,59.53
2023-03-05T01:21:30.757Z,59.28
2023-03-05T01:24:03.161Z,58.88
2023-03-05T01:26:35.074Z,58.18
2023-03-05T01:29:06.921Z,58.81
2023-03-05T01:31:38.668Z,59.90
2023-03-05T01:34:10.659Z,60.69
2023-03-05T01:36:42.476Z,61.08
2023-03-05T01:39:14.680Z,60.38
2023-03-05T01:41:46.372Z,59.99
2023-03-05T01:44:29.457Z,60.84
2023-03-05T01:47:01.753Z,61.74
2023-03-05T01:49:41.068Z,61.57
2023-03-05T01:52:21.981Z,61.75
2023-03-05T01:54:58.050Z,61.15
2023-03-05T01:57:42.217Z,61.17
2023-03-05T02:00:19.889Z,61.96
2023-03-05T02:02:52.901Z,61.37
2023-03-05T02:05:30.148Z,62.03
2023-03-05T02:08:06.298Z,62.05
2023-03-05T02:10:48.780Z,62.12
2023-03-05T02:13:23.837Z,62.30
2023-03-05T02:15:58.938Z,61.73
2023-03-05T02:18:31.261Z,63.80
2023-03-05T02:21:07.877Z,63.69
2023-03-05T02:23:40.119Z,64.72
2023-03-05T02:26:11.781Z,63.78
2023-03-05T02:28:56.929Z,64.66
2023-03-05T02:31:28.801Z,64.44
2023-03-05T02:34:00.881Z,64.04
2023-03-05T02:36:32.933Z,64.07
2023-03-05T02:39:05.233Z,64.08
2023-03-05T02:41:37.034Z,64.78
2023-03-05T02:44:09.851Z,65.62
2023-03-05T02:46:41.826Z,66.03
2023-03-05T02:49:13.543Z,66.21
2023-03-05T02:51:45.212Z,66.10
2023-03-05T02:54:17.332Z,66.37
2023-03-05T02:56:49.974Z,65.62
2023-03-05T02:59:21.842Z,66.97
2023-03-05T03:01:53.632Z,65.95
2023-03-05T03:04:25.482Z,65.94
2023-03-05T03:06:57.221Z,65.11
2023-03-05T03:09:29.488Z,65.73
2023-03-05T03:12:01.475Z,65.15
2023-03-05T03:14:38.435Z,65.44
2023-03-05T03:17:13.957Z,65.62
2023-03-05T03:19:46.330Z,65.22
2023-03-05T03:22:17.925Z,65.52
2023-03-05T03:24:49.631Z,64.57
2023-03-05T03:27:21.270Z,65.06
2023-03-05T03:29:53.109Z,65.32
2023-03-05T03:32:24.746Z,65.83
2023-03-05T03:34:57.257Z,64.90
2023-03-05T03:37:30.455Z,66.14
2023-03-05T03:40:02.187Z,65.17
2023-03-05T03:42:33.919Z,66.51
2023-03-05T03:45:06.129Z,66.71
2023-03-05T03:47:37.965Z,65.96
2023-03-05T03:50:10.394Z,66.71
2023-03-05T03:52:41.992Z,66.69
2023-03-05T03:55:13.824Z,65.73
2023-03-05T03:57:45.536Z,65.48
2023-03-05T04:00:17.865Z,65.95
2023-03-05T04:02:49.761Z,66.60
2023-03-05T04:05:21.682Z,66.53
2023-03-05T04:07:53.509Z,66.45
2023-03-05T04:10:26.122Z,66.68
2023-03-05T04:12:57.835Z,66.20
2023-03-05T04:15:30.183Z,66.94
2023-03-05T04:18:01.984Z,67.19
2023-03-05T04:20:33.582Z,66.89
2023-03-05T04:23:05.238Z,66.89
2023-03-05T04:25:36.845Z,66.82
2023-03-05T04:28:08.626Z,66.20
2023-03-05T04:30:40.476Z,66.09
2023-03-05T04:33:12.202Z,66.29
2023-03-05T04:35:44.014Z,66.87
2023-03-05T04:38:16.017Z,66.01
2023-03-05T04:40:47.995Z,65.82
2023-03-05T04:43:19.742Z,65.57
2023-03-05T04:45:51.422Z,65.84
2023-03-05T04:48:23.321Z,65.53
2023-03-05T04:50:55.171Z,64.90
2023-03-05T04:53:26.823Z,66.00
2023-03-05T04:55:58.498Z,64.35
2023-03-05T04:58:30.255Z,64.62
2023-03-05T05:01:04.093Z,63.99
2023-03-05T05:03:35.905Z,65.04
2023-03-05T05:06:08.555Z,63.43
2023-03-05T05:08:40.365Z,64.54
2023-03-05T05:11:14.427Z,64.16
2023-03-05T05:13:46.301Z,65.71
2023-03-05T05:16:18.102Z,65.24
2023-03-05T05:18:49.943Z,66.03
2023-03-05T05:21:22.205Z,67.12
2023-03-05T05:23:53.912Z,67.78
2023-03-05T05:26:26.527Z,65.73
2023-03-05T05:28:58.319Z,65.62
2023-03-05T05:31:30.088Z,65.74
2023-03-05T05:34:02.448Z,65.63
2023-03-05T05:36:34.140Z,64.59
2023-03-05T05:39:05.893Z,65.91
2023-03-05T05:41:37.858Z,66.28
2023-03-05T05:44:09.974Z,66.65
2023-03-05T05:46:41.897Z,65.86
2023-03-05T05:49:13.664Z,66.27
2023-03-05T05:51:45.578Z,67.28
2023-03-05T05:54:17.275Z,66.99
2023-03-05T05:56:49.229Z,65.56
2023-03-05T05:59:21.156Z,67.51
2023-03-05T06:01:52.985Z,67.90
2023-03-05T06:04:25.187Z,68.49
2023-03-05T06:06:58.206Z,67.20
2023-03-05T06:09:30.318Z,68.39
2023-03-05T06:12:02.622Z,67.73
2023-03-05T06:14:34.521Z,67.85
2023-03-05T06:17:06.409Z,67.32
2023-03-05T06:19:38.181Z,69.01
2023-03-05T06:22:09.925Z,68.55
2023-03-05T06:24:42.298Z,67.83
2023-03-05T06:27:14.081Z,67.22
2023-03-05T06:29:46.470Z,67.48
2023-03-05T06:32:18.357Z,66.71
2023-03-05T06:34:50.588Z,66.54
2023-03-05T06:37:22.414Z,66.60
2023-03-05T06:39:54.132Z,67.17
2023-03-05T06:42:25.882Z,66.39
2023-03-05T06:44:57.789Z,67.14
2023-03-05T06:47:29.407Z,67.67
2023-03-05T06:50:02.920Z,67.22
2023-03-05T06:52:34.563Z,67.02
2023-03-05T06:55:07.068Z,65.65
2023-03-05T06:57:38.667Z,65.92
2023-03-05T07:00:10.973Z,64.83
2023-03-05T07:02:42.637Z,64.14
2023-03-05T07:05:14.546Z,61.77
2023-03-05T07:07:46.309Z,60.59
2023-03-05T07:10:18.588Z,58.94
2023-03-05T07:12:50.247Z,58.75
2023-03-05T07:15:22.343Z,57.50
2023-03-05T07:17:53.980Z,58.95
2023-03-05T07:20:25.604Z,60.46
2023-03-05T07:22:57.192Z,62.99
2023-03-05T07:25:29.309Z,61.87
2023-03-05T07:28:01.002Z,61.95
2023-03-05T07:30:34.117Z,60.90
2023-03-05T07:33:05.722Z,62.83
2023-03-05T07:35:40.685Z,62.32
2023-03-05T07:38:12.407Z,62.38
2023-03-05T07:40:44.332Z,64.10
2023-03-05T07:43:16.597Z,63.53
2023-03-05T07:45:49.349Z,64.31
2023-03-05T07:48:20.986Z,63.10
2023-03-05T07:51:08.432Z,63.27
2023-03-05T07:53:40.537Z,62.58
2023-03-05T07:56:12.530Z,62.88
2023-03-05T07:58:45.406Z,63.62
2023-03-05T08:01:17.115Z,62.72
2023-03-05T08:03:48.929Z,60.63
2023-03-05T08:06:20.995Z,60.91
2023-03-05T08:08:52.722Z,55.50
2023-03-05T08:11:24.765Z,54.67
2023-03-05T08:13:56.559Z,51.81
2023-03-05T08:16:28.205Z,52.72
2023-03-05T08:18:59.966Z,51.74
2023-03-05T08:21:34.548Z,48.92
2023-03-05T08:24:09.032Z,43.71
2023-03-05T08:26:41.455Z,42.51
2023-03-05T08:29:13.164Z,40.95
2023-03-05T08:31:46.490Z,40.33
2023-03-05T08:34:18.212Z,40.88
2023-03-05T08:36:50.500Z,40.54
2023-03-05T08:39:22.179Z,41.42
2023-03-05T08:41:53.996Z,43.39
2023-03-05T08:44:25.776Z,48.69
2023-03-05T08:46:57.929Z,48.87
2023-03-05T08:49:29.767Z,47.06
2023-03-05T08:52:01.434Z,42.49
2023-03-05T08:54:34.351Z,42.04
2023-03-05T08:57:06.528Z,40.43
2023-03-05T08:59:38.222Z,38.48
2023-03-05T09:02:14.165Z,38.52
2023-03-05T09:04:45.957Z,37.17
2023-03-05T09:07:17.679Z,35.95
2023-03-05T09:09:49.718Z,36.00
2023-03-05T09:12:21.404Z,36.55
2023-03-05T09:14:55.129Z,35.45
2023-03-05T09:17:26.871Z,35.61
2023-03-05T09:19:58.728Z,34.18
2023-03-05T09:22:30.407Z,33.95
2023-03-05T09:25:02.322Z,35.77
2023-03-05T09:27:35.510Z,35.11
2023-03-05T09:30:08.376Z,33.97
2023-03-05T09:32:40.233Z,33.06
2023-03-05T09:35:12.240Z,32.64
2023-03-05T09:37:43.908Z,33.79
2023-03-05T09:40:18.941Z,32.68
2023-03-05T09:43:15.473Z,32.41
2023-03-05T09:45:56.423Z,32.86
2023-03-05T09:48:47.209Z,31.72
2023-03-05T09:51:31.407Z,32.51
2023-03-05T09:54:35.401Z,32.24
2023-03-05T09:57:22.609Z,33.70
2023-03-05T10:00:00.120Z,31.75
2023-03-05T10:02:37.022Z,33.77
2023-03-05T10:05:08.555Z,35.54
2023-03-05T10:07:45.846Z,35.39
2023-03-05T10:10:31.600Z,37.09
2023-03-05T10:13:32.644Z,36.83
2023-03-05T10:16:26.352Z,34.51
2023-03-05T10:19:03.116Z,35.02
2023-03-05T10:21:56.989Z,34.45
2023-03-05T10:24:31.348Z,34.79
2023-03-05T10:27:12.275Z,34.38
2023-03-05T10:30:18.515Z,35.30
2023-03-05T10:33:16.378Z,35.11
2023-03-05T10:36:08.359Z,34.16
2023-03-05T10:39:02.581Z,33.13
2023-03-05T10:41:37.108Z,32.93
2023-03-05T10:44:33.371Z,32.19
2023-03-05T10:47:22.013Z,32.79
2023-03-05T10:49:56.654Z,32.12
2023-03-05T10:52:42.137Z,32.51
2023-03-05T10:55:17.149Z,31.02
2023-03-05T10:57:48.853Z,32.33
2023-03-05T11:00:24.136Z,31.58
2023-03-05T11:03:07.996Z,32.49
2023-03-05T11:05:52.101Z,32.20
2023-03-05T11:08:34.247Z,34.78
2023-03-05T11:11:16.492Z,33.30
2023-03-05T11:13:48.080Z,32.71
2023-03-05T11:16:29.546Z,34.81
2023-03-05T11:19:18.604Z,35.01
2023-03-05T11:22:16.562Z,34.03
2023-03-05T11:25:14.931Z,33.14
2023-03-05T11:27:54.884Z,33.85
2023-03-05T11:30:34.231Z,35.37
2023-03-05T11:33:16.714Z,35.14
2023-03-05T11:35:50.143Z,36.27
2023-03-05T11:38:27.725Z,37.02
2023-03-05T11:41:00.441Z,36.52
2023-03-05T11:43:33.431Z,36.68
2023-03-05T11:46:05.320Z,34.96
2023-03-05T11:48:40.068Z,37.05
2023-03-05T11:51:26.755Z,37.35
2023-03-05T11:54:08.974Z,34.78
2023-03-05T11:56:45.591Z,36.14
2023-03-05T11:59:35.143Z,35.30
2023-03-05T12:02:20.689Z,34.25
2023-03-05T12:04:52.590Z,35.28
2023-03-05T12:07:39.731Z,35.05
2023-03-05T12:10:22.134Z,36.38
2023-03-05T12:13:20.059Z,34.58
2023-03-05T12:16:17.196Z,36.02
2023-03-05T12:19:10.999Z,41.99
2023-03-05T12:21:48.604Z,39.34
2023-03-05T12:24:23.048Z,39.01
2023-03-05T12:27:03.544Z,37.46
2023-03-05T12:29:45.436Z,36.17
2023-03-05T12:32:23.321Z,36.65
2023-03-05T12:35:21.479Z,40.41
2023-03-05T12:37:53.219Z,41.71
2023-03-05T12:40:28.606Z,42.63
2023-03-05T12:43:25.728Z,43.23
2023-03-05T12:46:22.430Z,42.53
2023-03-05T12:48:54.269Z,41.98
2023-03-05T12:51:33.706Z,40.95
2023-03-05T12:54:38.258Z,40.22
2023-03-05T12:57:20.898Z,40.71
2023-03-05T13:00:06.131Z,43.21
2023-03-05T13:02:45.717Z,41.76
2023-03-05T13:05:30.736Z,41.20
2023-03-05T13:08:21.828Z,40.49
2023-03-05T13:11:01.460Z,45.39
2023-03-05T13:13:38.706Z,46.01
2023-03-05T13:16:27.047Z,46.67
2023-03-05T13:19:02.006Z,46.23
2023-03-05T13:21:34.420Z,46.32
2023-03-05T13:24:17.239Z,46.88
2023-03-05T13:26:48.858Z,46.95
2023-03-05T13:29:26.020Z,46.13
2023-03-05T13:32:02.024Z,45.39
2023-03-05T13:34:46.817Z,44.76
2023-03-05T13:37:26.723Z,42.65
2023-03-05T13:40:05.238Z,43.29
2023-03-05T13:42:36.859Z,43.14
2023-03-05T13:45:34.532Z,45.31
2023-03-05T13:48:07.162Z,45.50
2023-03-05T13:50:40.647Z,47.14
2023-03-05T13:53:22.764Z,44.99
2023-03-05T13:55:59.095Z,45.49
2023-03-05T13:58:49.904Z,45.74
2023-03-05T14:01:28.018Z,45.85
2023-03-05T14:04:41.546Z,46.37
2023-03-05T14:07:39.674Z,46.34
2023-03-05T14:10:43.648Z,46.76
2023-03-05T14:13:22.088Z,48.25
2023-03-05T14:16:06.488Z,48.12
2023-03-05T14:18:39.753Z,48.45
2023-03-05T14:21:12.439Z,48.33
2023-03-05T14:23:48.087Z,48.63
2023-03-05T14:26:31.535Z,49.38
2023-03-05T14:29:09.496Z,47.84
2023-03-05T14:31:53.136Z,47.21
2023-03-05T14:34:30.265Z,47.91
2023-03-05T14:37:19.180Z,46.21
2023-03-05T14:39:57.979Z,49.24
2023-03-05T14:42:33.037Z,47.47
2023-03-05T14:45:37.334Z,47.08
2023-03-05T14:48:13.191Z,47.63
2023-03-05T14:50:52.815Z,49.27
2023-03-05T14:53:30.366Z,47.32
2023-03-05T14:56:02.298Z,45.53
2023-03-05T14:58:34.534Z,45.89
2023-03-05T15:01:06.451Z,45.47
2023-03-05T15:03:38.235Z,43.06
2023-03-05T15:06:24.127Z,43.35
2023-03-05T15:08:58.012Z,39.27
2023-03-05T15:11:30.180Z,36.02
2023-03-05T15:14:01.913Z,33.04
2023-03-05T15:16:33.850Z,31.42
2023-03-05T15:19:05.607Z,31.63
2023-03-05T15:21:37.356Z,30.42
2023-03-05T15:24:11.300Z,31.81
2023-03-05T15:26:43.317Z,32.04
2023-03-05T15:29:15.164Z,32.67
2023-03-05T15:31:47.052Z,31.57
2023-03-05T15:34:18.733Z,31.80
2023-03-05T15:36:50.448Z,33.04
2023-03-05T15:39:23.610Z,34.18
2023-03-05T15:41:55.849Z,33.87
2023-03-05T15:44:28.073Z,35.00
2023-03-05T15:46:59.942Z,36.39
2023-03-05T15:49:32.244Z,41.07
2023-03-05T15:52:04.100Z,43.78
2023-03-05T15:54:36.066Z,44.03
2023-03-05T15:57:10.309Z,44.37
2023-03-05T15:59:41.996Z,45.47
2023-03-05T16:02:14.276Z,44.17
2023-03-05T16:04:46.208Z,44.59
2023-03-05T16:07:18.292Z,45.06
2023-03-05T16:09:53.296Z,45.31
2023-03-05T16:12:35.853Z,44.93
2023-03-05T16:15:15.445Z,46.29
2023-03-05T16:17:52.470Z,45.36
2023-03-05T16:20:24.266Z,47.05
2023-03-05T16:22:56.278Z,46.67
2023-03-05T16:25:28.008Z,47.55
2023-03-05T16:27:59.609Z,46.93
2023-03-05T16:30:31.478Z,47.26
2023-03-05T16:33:04.731Z,49.25
2023-03-05T16:35:36.690Z,49.26
2023-03-05T16:38:08.295Z,49.21
2023-03-05T16:41:06.316Z,48.68
2023-03-05T16:43:31.449Z,48.98
2023-03-05T16:46:03.031Z,50.35
2023-03-05T16:48:34.714Z,50.04
2023-03-05T16:51:06.700Z,50.59
2023-03-05T16:53:39.663Z,49.12
2023-03-05T16:56:11.612Z,48.75
2023-03-05T16:58:43.215Z,49.96
2023-03-05T17:01:20.140Z,48.58
2023-03-05T17:03:52.373Z,48.84
2023-03-05T17:06:27.077Z,48.69
2023-03-05T17:08:59.393Z,47.66
2023-03-05T17:11:31.371Z,48.01
2023-03-05T17:14:03.025Z,48.28
2023-03-05T17:16:34.669Z,47.84
2023-03-05T17:19:06.339Z,49.09
2023-03-05T17:21:38.455Z,50.61
2023-03-05T17:24:14.127Z,53.21
2023-03-05T17:26:46.088Z,53.45
2023-03-05T17:29:17.667Z,53.81
2023-03-05T17:31:51.228Z,52.79
2023-03-05T17:34:33.348Z,53.75
2023-03-05T17:37:07.093Z,53.91
2023-03-05T17:39:38.798Z,53.06
2023-03-05T17:42:10.503Z,53.27
2023-03-05T17:44:42.536Z,53.57
2023-03-05T17:47:14.320Z,53.89
2023-03-05T17:49:45.906Z,54.60
2023-03-05T17:52:17.499Z,55.95
2023-03-05T17:54:49.119Z,55.05
2023-03-05T17:57:22.140Z,56.39
2023-03-05T17:59:53.755Z,55.10
2023-03-05T18:02:25.318Z,54.59
2023-03-05T18:04:56.932Z,56.05
2023-03-05T18:07:28.635Z,55.31
2023-03-05T18:10:00.401Z,55.28
2023-03-05T18:12:32.106Z,56.22
2023-03-05T18:15:05.953Z,56.54
2023-03-05T18:17:38.348Z,56.19
2023-03-05T18:20:27.876Z,55.91
2023-03-05T18:23:01.888Z,56.58
2023-03-05T18:25:34.254Z,56.03
2023-03-05T18:28:12.432Z,56.73
2023-03-05T18:30:45.690Z,57.10
2023-03-05T18:33:20.980Z,56.46
2023-03-05T18:35:53.746Z,56.53
2023-03-05T18:38:29.240Z,56.40
2023-03-05T18:41:03.116Z,56.88
2023-03-05T18:43:35.133Z,55.45
2023-03-05T18:46:06.791Z,57.03
2023-03-05T18:48:38.593Z,57.28
2023-03-05T18:51:17.348Z,56.43
2023-03-05T18:53:49.370Z,56.89
2023-03-05T18:56:21.669Z,55.59
2023-03-05T18:58:53.669Z,56.24
2023-03-05T19:01:25.699Z,55.45
2023-03-05T19:03:57.486Z,56.45
2023-03-05T19:06:29.169Z,55.47
2023-03-05T19:09:01.078Z,55.26
2023-03-05T19:11:32.870Z,55.52
2023-03-05T19:14:04.553Z,56.48
2023-03-05T19:16:36.207Z,55.27
2023-03-05T19:19:12.224Z,55.56
2023-03-05T19:21:54.904Z,56.76
2023-03-05T19:24:30.286Z,57.14
2023-03-05T19:27:01.939Z,58.69
2023-03-05T19:29:33.757Z,58.86
2023-03-05T19:32:05.998Z,59.42
2023-03-05T19:34:38.149Z,58.81
2023-03-05T19:37:09.803Z,60.28
2023-03-05T19:39:41.874Z,59.86
2023-03-05T19:42:13.546Z,59.01
2023-03-05T19:44:45.773Z,59.29
2023-03-05T19:47:17.449Z,59.84
2023-03-05T19:49:49.039Z,60.18
2023-03-05T19:52:20.688Z,59.55
2023-03-05T19:54:52.340Z,60.33
2023-03-05T19:57:24.009Z,59.46
2023-03-05T19:59:55.730Z,59.23
2023-03-05T20:02:27.337Z,59.70
2023-03-05T20:04:58.928Z,58.34
2023-03-05T20:07:30.491Z,57.37
2023-03-05T20:10:02.197Z,57.87
2023-03-05T20:12:33.864Z,57.54
2023-03-05T20:15:06.120Z,57.25
2023-03-05T20:17:37.731Z,55.61
2023-03-05T20:20:10.282Z,55.72
2023-03-05T20:22:43.445Z,55.31
2023-03-05T20:25:17.647Z,55.98
2023-03-05T20:27:49.238Z,55.28
2023-03-05T20:30:20.973Z,55.44
2023-03-05T20:32:52.647Z,55.01
2023-03-05T20:35:24.406Z,54.79
2023-03-05T20:38:01.660Z,53.80
2023-03-05T20:40:33.406Z,54.00
2023-03-05T20:43:05.115Z,53.85
2023-03-05T20:45:36.752Z,55.13
2023-03-05T20:48:08.479Z,55.07
2023-03-05T20:50:40.192Z,54.11
2023-03-05T20:53:11.766Z,54.43
2023-03-05T20:55:43.551Z,54.35
2023-03-05T20:58:15.309Z,55.17
2023-03-05T21:00:47.038Z,54.64
2023-03-05T21:03:18.670Z,54.66
2023-03-05T21:05:50.457Z,54.99
2023-03-05T21:08:22.169Z,55.80
2023-03-05T21:10:54.000Z,56.57
2023-03-05T21:13:26.381Z,57.91
2023-03-05T21:16:00.059Z,56.68
2023-03-05T21:18:31.934Z,58.00
2023-03-05T21:21:03.931Z,57.90
2023-03-05T21:23:35.905Z,58.18
2023-03-05T21:26:13.256Z,57.47
2023-03-05T21:28:45.049Z,57.10
2023-03-05T21:31:21.101Z,56.64
2023-03-05T21:33:53.063Z,57.22
2023-03-05T21:36:25.066Z,56.55
2023-03-05T21:38:56.774Z,55.57
2023-03-05T21:41:28.489Z,54.21
2023-03-05T21:44:00.453Z,54.49
2023-03-05T21:46:32.218Z,54.98
2023-03-05T21:49:03.882Z,54.32
2023-03-05T21:51:35.740Z,53.85
2023-03-05T21:54:07.424Z,53.19
2023-03-05T21:56:39.012Z,52.91
2023-03-05T21:59:10.838Z,55.88
2023-03-05T22:01:42.674Z,54.76
2023-03-05T22:04:14.360Z,54.08
2023-03-05T22:06:46.094Z,54.77
2023-03-05T22:09:17.907Z,54.11
2023-03-05T22:11:49.583Z,53.76
2023-03-05T22:14:21.455Z,53.82
2023-03-05T22:16:53.312Z,54.75
2023-03-05T22:19:24.982Z,55.06
2023-03-05T22:21:56.715Z,55.87
2023-03-05T22:24:28.716Z,55.01
2023-03-05T22:27:00.504Z,54.56
2023-03-05T22:29:32.317Z,55.36
2023-03-05T22:32:04.295Z,54.80
2023-03-05T22:34:36.109Z,56.77
2023-03-05T22:37:07.852Z,56.52
2023-03-05T22:39:39.632Z,56.00
2023-03-05T22:42:11.356Z,55.84
2023-03-05T22:44:43.268Z,56.25
2023-03-05T22:47:15.220Z,57.46
2023-03-05T22:49:47.015Z,56.15
2023-03-05T22:52:19.229Z,57.25
2023-03-05T22:54:50.998Z,56.39
2023-03-05T22:57:22.664Z,56.48
2023-03-05T22:59:54.293Z,55.40
2023-03-05T23:02:25.878Z,55.55
2023-03-05T23:04:57.507Z,55.03
2023-03-05T23:07:35.395Z,56.10
2023-03-05T23:10:12.822Z,56.74
2023-03-05T23:12:47.752Z,55.91
2023-03-05T23:15:25.927Z,55.63
2023-03-05T23:17:58.041Z,55.04
2023-03-05T23:20:32.876Z,55.09
2023-03-05T23:23:04.924Z,54.73
2023-03-05T23:25:36.660Z,55.63
2023-03-05T23:28:08.312Z,55.88
2023-03-05T23:30:39.950Z,55.97
2023-03-05T23:33:18.113Z,55.66
2023-03-05T23:35:53.036Z,55.36
2023-03-05T23:38:27.077Z,55.15
2023-03-05T23:41:00.952Z,55.68
2023-03-05T23:43:32.860Z,54.91
2023-03-05T23:46:10.683Z,55.26
2023-03-05T23:48:42.318Z,55.02
2023-03-05T23:51:13.881Z,56.26
2023-03-05T23:53:45.460Z,56.39
2023-03-05T23:56:17.044Z,56.23
2023-03-05T23:58:48.706Z,55.77
